Time,TemperatureF,DewpointF,PressureIn,WindDirection,WindDirectionDegrees,WindSpeedMPH,WindSpeedGustMPH,Humidity,HourlyPrecipIn,Conditions,Clouds,dailyrainin,SoftwareType,DateUTC
2013-04-09 00:02:00,65.0,62.0,-100.00,SSE,155,11.0,15.0,90,0.00,,,-99.99,,2013-04-09 05:02:00,
2013-04-09 00:12:00,65.0,62.0,-100.00,SSE,150,11.0,15.0,90,0.00,,,-99.99,,2013-04-09 05:12:00,
2013-04-09 00:22:00,64.0,62.0,-100.00,SSE,150,9.0,14.0,90,0.00,,,-99.99,,2013-04-09 05:22:00,
2013-04-09 00:32:00,64.0,62.0,-100.00,SSE,155,10.0,13.0,90,0.00,,,-99.99,,2013-04-09 05:32:00,
2013-04-09 00:42:00,64.0,62.0,-100.00,SSE,155,10.0,13.0,90,0.00,,,-99.99,,2013-04-09 05:42:00,
2013-04-09 00:52:00,64.0,61.0,-100.00,SE,140,10.0,12.0,89,0.00,,,-99.99,,2013-04-09 05:52:00,
2013-04-09 01:02:00,64.0,61.0,-100.00,SE,140,10.0,12.0,89,0.00,,,-99.99,,2013-04-09 06:02:00,
2013-04-09 01:12:00,64.0,61.0,-100.00,SSE,165,9.0,12.0,89,0.00,,,-99.99,,2013-04-09 06:12:00,
2013-04-09 01:22:00,64.0,61.0,-100.00,SSE,160,7.0,12.0,89,0.00,,,-99.99,,2013-04-09 06:22:00,
2013-04-09 01:32:00,63.0,60.0,-100.00,SSE,150,9.0,12.0,91,0.00,,,-99.99,,2013-04-09 06:32:00,
2013-04-09 01:42:00,63.0,60.0,-100.00,SSE,150,9.0,12.0,91,0.00,,,-99.99,,2013-04-09 06:42:00,
2013-04-09 01:52:00,63.0,60.0,-100.00,South,170,9.0,12.0,91,0.00,,,-99.99,,2013-04-09 06:52:00,
2013-04-09 02:02:00,63.0,60.0,-100.00,South,170,9.0,12.0,91,0.00,,,-99.99,,2013-04-09 07:02:00,
2013-04-09 02:12:00,63.0,60.0,-100.00,SSE,160,8.0,11.0,92,0.00,,,-99.99,,2013-04-09 07:12:00,
2013-04-09 02:22:00,63.0,60.0,-100.00,SSE,165,9.0,12.0,91,0.00,,,-99.99,,2013-04-09 07:22:00,
2013-04-09 02:32:00,62.0,60.0,-100.00,South,170,12.0,15.0,92,0.00,,,-99.99,,2013-04-09 07:32:00,
2013-04-09 02:42:00,62.0,60.0,-100.00,South,170,12.0,15.0,92,0.00,,,-99.99,,2013-04-09 07:42:00,
2013-04-09 02:52:00,62.0,60.0,-100.00,South,175,9.0,11.0,92,0.00,,,-99.99,,2013-04-09 07:52:00,
2013-04-09 03:03:00,62.0,60.0,-100.00,South,175,9.0,11.0,92,0.00,,,-99.99,,2013-04-09 08:03:00,
2013-04-09 03:12:00,62.0,60.0,-100.00,SSE,165,9.0,13.0,92,0.00,,,-99.99,,2013-04-09 08:12:00,
2013-04-09 03:22:00,62.0,60.0,-100.00,SSE,165,10.0,12.0,92,0.00,,,-99.99,,2013-04-09 08:22:00,
2013-04-09 03:32:00,62.0,60.0,-100.00,SSE,160,7.0,12.0,91,0.00,,,-99.99,,2013-04-09 08:32:00,
2013-04-09 03:42:00,62.0,60.0,-100.00,SSE,160,7.0,12.0,91,0.00,,,-99.99,,2013-04-09 08:42:00,
2013-04-09 03:52:00,62.0,59.0,-100.00,SE,145,9.0,11.0,91,0.00,,,-99.99,,2013-04-09 08:52:00,
2013-04-09 04:02:00,62.0,59.0,-100.00,SE,145,9.0,11.0,91,0.00,,,-99.99,,2013-04-09 09:02:00,
2013-04-09 04:12:00,62.0,60.0,-100.00,SSE,160,9.0,12.0,91,0.00,,,-99.99,,2013-04-09 09:12:00,
2013-04-09 04:22:00,63.0,60.0,-100.00,SSE,150,9.0,12.0,91,0.00,,,-99.99,,2013-04-09 09:22:00,
2013-04-09 04:33:00,63.0,60.0,-100.00,SSE,160,10.0,14.0,90,0.00,,,-99.99,,2013-04-09 09:33:00,
2013-04-09 04:43:00,63.0,60.0,-100.00,SSE,160,10.0,14.0,90,0.00,,,-99.99,,2013-04-09 09:43:00,
2013-04-09 04:52:00,63.0,60.0,-100.00,South,175,13.0,17.0,89,0.00,,,-99.99,,2013-04-09 09:52:00,
2013-04-09 05:03:00,63.0,60.0,-100.00,South,175,13.0,17.0,89,0.00,,,-99.99,,2013-04-09 10:03:00,
2013-04-09 05:12:00,63.0,60.0,-100.00,South,175,14.0,17.0,89,0.00,,,-99.99,,2013-04-09 10:12:00,
2013-04-09 05:23:00,63.0,60.0,-100.00,South,180,13.0,17.0,89,0.00,,,-99.99,,2013-04-09 10:23:00,
2013-04-09 05:33:00,63.0,60.0,-100.00,South,190,14.0,19.0,88,0.00,,,-99.99,,2013-04-09 10:33:00,
2013-04-09 05:42:00,63.0,60.0,-100.00,South,190,14.0,19.0,88,0.00,,,-99.99,,2013-04-09 10:42:00,
2013-04-09 05:52:00,63.0,60.0,-100.00,South,180,14.0,19.0,88,0.00,,,-99.99,,2013-04-09 10:52:00,
2013-04-09 06:02:00,63.0,60.0,-100.00,South,180,14.0,19.0,88,0.00,,,-99.99,,2013-04-09 11:02:00,
2013-04-09 06:12:00,63.0,60.0,-100.00,South,180,15.0,20.0,87,0.00,,,-99.99,,2013-04-09 11:12:00,
2013-04-09 06:22:00,64.0,60.0,-100.00,South,180,12.0,18.0,87,0.00,,,-99.99,,2013-04-09 11:22:00,
2013-04-09 06:32:00,63.0,60.0,-100.00,South,180,7.0,11.0,87,0.00,,,-99.99,,2013-04-09 11:32:00,
2013-04-09 06:42:00,63.0,60.0,-100.00,South,180,7.0,11.0,87,0.00,,,-99.99,,2013-04-09 11:42:00,
2013-04-09 06:52:00,63.0,60.0,-100.00,South,185,9.0,12.0,88,0.18,,,-99.99,,2013-04-09 11:52:00,
2013-04-09 07:02:00,63.0,60.0,-100.00,South,185,9.0,12.0,88,0.18,,,-99.99,,2013-04-09 12:02:00,
2013-04-09 07:12:00,63.0,60.0,-100.00,SSW,195,9.0,12.0,90,0.21,,,-99.99,,2013-04-09 12:12:00,
2013-04-09 07:22:00,63.0,60.0,-100.00,South,190,10.0,14.0,92,0.20,,,-99.99,,2013-04-09 12:22:00,
2013-04-09 07:32:00,62.0,61.0,-100.00,South,185,11.0,14.0,94,0.00,,,-99.99,,2013-04-09 12:32:00,
2013-04-09 07:42:00,62.0,61.0,-100.00,South,185,11.0,14.0,94,0.00,,,-99.99,,2013-04-09 12:42:00,
2013-04-09 07:52:00,62.0,61.0,-100.00,South,180,12.0,15.0,95,0.00,,,-99.99,,2013-04-09 12:52:00,
2013-04-09 08:02:00,62.0,61.0,-100.00,South,180,12.0,15.0,95,0.00,,,-99.99,,2013-04-09 13:02:00,
2013-04-09 08:12:00,62.0,61.0,-100.00,South,185,11.0,15.0,95,0.00,,,-99.99,,2013-04-09 13:12:00,
2013-04-09 08:22:00,62.0,61.0,-100.00,South,185,10.0,13.0,95,0.00,,,-99.99,,2013-04-09 13:22:00,
2013-04-09 08:32:00,63.0,61.0,-100.00,South,180,10.0,13.0,95,0.00,,,-99.99,,2013-04-09 13:32:00,
2013-04-09 08:42:00,63.0,61.0,-100.00,South,180,10.0,13.0,95,0.00,,,-99.99,,2013-04-09 13:42:00,
2013-04-09 08:52:00,64.0,62.0,-100.00,South,180,14.0,17.0,94,0.00,,,-99.99,,2013-04-09 13:52:00,
2013-04-09 09:03:00,64.0,62.0,-100.00,South,180,14.0,17.0,94,0.00,,,-99.99,,2013-04-09 14:03:00,
2013-04-09 09:12:00,64.0,62.0,-100.00,SSW,195,14.0,18.0,94,0.00,,,-99.99,,2013-04-09 14:12:00,
2013-04-09 09:22:00,64.0,62.0,-100.00,South,180,16.0,22.0,93,0.00,,,-99.99,,2013-04-09 14:22:00,
2013-04-09 09:32:00,65.0,63.0,-100.00,South,180,11.0,17.0,92,0.00,,,-99.99,,2013-04-09 14:32:00,
2013-04-09 09:42:00,65.0,63.0,-100.00,South,180,11.0,17.0,92,0.00,,,-99.99,,2013-04-09 14:42:00,
2013-04-09 09:52:00,65.0,62.0,-100.00,South,190,10.0,17.0,89,0.00,,,-99.99,,2013-04-09 14:52:00,
2013-04-09 10:02:00,65.0,62.0,-100.00,South,190,10.0,17.0,89,0.00,,,-99.99,,2013-04-09 15:02:00,
2013-04-09 10:12:00,65.0,62.0,-100.00,South,190,10.0,17.0,89,0.00,,,-99.99,,2013-04-09 15:12:00,
2013-04-09 10:22:00,65.0,62.0,-100.00,South,190,10.0,17.0,89,0.00,,,-99.99,,2013-04-09 15:22:00,
2013-04-09 10:33:00,65.0,62.0,-100.00,South,190,10.0,17.0,89,0.00,,,-99.99,,2013-04-09 15:33:00,
2013-04-09 12:13:00,50.0,48.0,-100.00,North,10,21.0,24.0,94,0.00,,,-99.99,,2013-04-09 17:13:00,
2013-04-09 12:23:00,50.0,48.0,-100.00,North,5,20.0,24.0,94,0.00,,,-99.99,,2013-04-09 17:23:00,
2013-04-09 12:32:00,49.0,48.0,-100.00,North,0,17.0,22.0,95,0.24,,,-99.99,,2013-04-09 17:32:00,
2013-04-09 12:42:00,49.0,48.0,-100.00,North,0,17.0,22.0,95,0.24,,,-99.99,,2013-04-09 17:42:00,
2013-04-09 12:53:00,48.0,47.0,-100.00,NNE,15,23.0,27.0,95,0.00,,,-99.99,,2013-04-09 17:53:00,
2013-04-09 13:02:00,48.0,47.0,-100.00,NNE,15,23.0,27.0,95,0.00,,,-99.99,,2013-04-09 18:02:00,
2013-04-09 13:12:00,48.0,47.0,-100.00,North,10,17.0,26.0,96,0.00,,,-99.99,,2013-04-09 18:12:00,
2013-04-09 13:22:00,48.0,47.0,-100.00,NNE,15,20.0,24.0,96,0.00,,,-99.99,,2013-04-09 18:22:00,
2013-04-09 13:33:00,47.0,47.0,-100.00,NNE,15,19.0,23.0,96,0.00,,,-99.99,,2013-04-09 18:33:00,
2013-04-09 13:43:00,47.0,47.0,-100.00,NNE,15,19.0,23.0,96,0.00,,,-99.99,,2013-04-09 18:43:00,
2013-04-09 13:52:00,47.0,47.0,-100.00,NNE,15,19.0,23.0,96,0.00,,,-99.99,,2013-04-09 18:52:00,
2013-04-09 14:02:00,48.0,47.0,-100.00,NNE,20,17.0,22.0,97,0.91,,,-99.99,,2013-04-09 19:02:00,
2013-04-09 14:12:00,48.0,47.0,-100.00,NNE,20,17.0,22.0,97,0.91,,,-99.99,,2013-04-09 19:12:00,
2013-04-09 14:22:00,48.0,47.0,-100.00,NNE,20,17.0,22.0,97,0.91,,,-99.99,,2013-04-09 19:22:00,
2013-04-09 14:32:00,47.0,47.0,-100.00,NNE,30,20.0,24.0,97,0.61,,,-99.99,,2013-04-09 19:32:00,
2013-04-09 14:41:00,47.0,47.0,-100.00,NNE,30,20.0,24.0,97,0.61,,,-99.99,,2013-04-09 19:41:00,
2013-04-09 14:52:00,46.0,46.0,-100.00,NNE,20,24.0,29.0,98,0.55,,,-99.99,,2013-04-09 19:52:00,
2013-04-09 15:02:00,46.0,46.0,-100.00,NNE,25,23.0,29.0,98,0.57,,,-99.99,,2013-04-09 20:02:00,
2013-04-09 15:12:00,46.0,45.0,-100.00,NNE,25,22.0,28.0,98,1.05,,,-99.99,,2013-04-09 20:12:00,
2013-04-09 15:22:00,46.0,45.0,-100.00,NNE,25,22.0,29.0,98,1.09,,,-99.99,,2013-04-09 20:22:00,
2013-04-09 15:33:00,46.0,46.0,-100.00,NE,35,16.0,24.0,99,0.54,,,-99.99,,2013-04-09 20:33:00,
2013-04-09 15:42:00,46.0,46.0,-100.00,NE,35,16.0,24.0,99,0.54,,,-99.99,,2013-04-09 20:42:00,
2013-04-09 15:52:00,45.0,45.0,-100.00,NE,40,23.0,27.0,98,0.00,,,-99.99,,2013-04-09 20:52:00,
2013-04-09 16:02:00,45.0,45.0,-100.00,NE,40,23.0,27.0,98,0.00,,,-99.99,,2013-04-09 21:02:00,
2013-04-09 16:13:00,45.0,45.0,-100.00,NE,40,23.0,27.0,98,0.00,,,-99.99,,2013-04-09 21:13:00,
2013-04-09 16:22:00,45.0,45.0,-100.00,NE,40,23.0,27.0,98,0.00,,,-99.99,,2013-04-09 21:22:00,
2013-04-09 16:33:00,45.0,45.0,-100.00,NNE,25,20.0,27.0,97,0.00,,,-99.99,,2013-04-09 21:33:00,
2013-04-09 16:42:00,45.0,45.0,-100.00,NNE,25,20.0,27.0,97,0.00,,,-99.99,,2013-04-09 21:42:00,
2013-04-09 16:53:00,45.0,44.0,-100.00,NE,35,17.0,22.0,97,1.18,,,-99.99,,2013-04-09 21:53:00,
2013-04-09 17:03:00,45.0,44.0,-100.00,NE,35,17.0,22.0,97,1.18,,,-99.99,,2013-04-09 22:03:00,
2013-04-09 17:12:00,45.0,44.0,-100.00,NE,35,16.0,21.0,97,0.85,,,-99.99,,2013-04-09 22:12:00,
2013-04-09 17:23:00,45.0,45.0,-100.00,NE,35,14.0,18.0,98,1.81,,,-99.99,,2013-04-09 22:23:00,
2013-04-09 17:33:00,45.0,44.0,-100.00,NNE,30,16.0,21.0,98,0.37,,,-99.99,,2013-04-09 22:33:00,
2013-04-09 17:42:00,45.0,44.0,-100.00,NNE,30,16.0,21.0,98,0.37,,,-99.99,,2013-04-09 22:42:00,
2013-04-09 17:52:00,44.0,44.0,-100.00,NE,35,17.0,21.0,98,0.55,,,-99.99,,2013-04-09 22:52:00,
2013-04-09 18:03:00,44.0,44.0,-100.00,NE,35,17.0,21.0,98,0.55,,,-99.99,,2013-04-09 23:03:00,
2013-04-09 18:12:00,44.0,44.0,-100.00,NE,40,16.0,24.0,98,0.58,,,-99.99,,2013-04-09 23:12:00,
2013-04-09 18:22:00,44.0,44.0,-100.00,NE,40,17.0,23.0,98,0.37,,,-99.99,,2013-04-09 23:22:00,
2013-04-09 18:32:00,44.0,44.0,-100.00,NE,45,16.0,22.0,98,0.38,,,-99.99,,2013-04-09 23:32:00,
2013-04-09 18:42:00,44.0,44.0,-100.00,NE,45,16.0,22.0,98,0.38,,,-99.99,,2013-04-09 23:42:00,
2013-04-09 18:52:00,44.0,44.0,-100.00,NE,40,13.0,19.0,98,0.35,,,-99.99,,2013-04-09 23:52:00,
2013-04-09 19:03:00,44.0,44.0,-100.00,NE,40,13.0,19.0,98,0.35,,,-99.99,,2013-04-10 00:03:00,
2013-04-09 19:12:00,44.0,44.0,-100.00,NE,40,13.0,19.0,98,0.35,,,-99.99,,2013-04-10 00:12:00,
2013-04-09 19:22:00,44.0,43.0,-100.00,NNE,20,19.0,21.0,97,0.00,,,-99.99,,2013-04-10 00:22:00,
2013-04-09 19:32:00,44.0,43.0,-100.00,North,0,16.0,22.0,96,0.44,,,-99.99,,2013-04-10 00:32:00,
2013-04-09 19:42:00,44.0,43.0,-100.00,North,0,16.0,22.0,96,0.44,,,-99.99,,2013-04-10 00:42:00,
2013-04-09 19:52:00,44.0,43.0,-100.00,North,10,18.0,23.0,96,0.79,,,-99.99,,2013-04-10 00:52:00,
2013-04-09 20:02:00,44.0,43.0,-100.00,North,10,18.0,23.0,96,0.79,,,-99.99,,2013-04-10 01:02:00,
2013-04-09 20:12:00,43.0,42.0,-100.00,NNE,20,21.0,24.0,96,1.12,,,-99.99,,2013-04-10 01:12:00,
2013-04-09 20:23:00,43.0,42.0,-100.00,NNE,30,17.0,26.0,97,0.76,,,-99.99,,2013-04-10 01:23:00,
2013-04-09 20:32:00,43.0,42.0,-100.00,NNE,20,17.0,23.0,98,0.38,,,-99.99,,2013-04-10 01:32:00,
2013-04-09 20:42:00,43.0,42.0,-100.00,NNE,20,17.0,23.0,98,0.38,,,-99.99,,2013-04-10 01:42:00,
2013-04-09 20:52:00,43.0,42.0,-100.00,NNE,30,17.0,22.0,98,0.38,,,-99.99,,2013-04-10 01:52:00,
2013-04-09 21:02:00,43.0,42.0,-100.00,NNE,30,17.0,22.0,98,0.38,,,-99.99,,2013-04-10 02:02:00,
2013-04-09 21:12:00,43.0,42.0,-100.00,NE,35,17.0,22.0,97,0.44,,,-99.99,,2013-04-10 02:12:00,
2013-04-09 21:22:00,43.0,42.0,-100.00,NNE,20,17.0,23.0,97,0.47,,,-99.99,,2013-04-10 02:22:00,
2013-04-09 21:32:00,42.0,42.0,-100.00,North,10,16.0,21.0,97,1.01,,,-99.99,,2013-04-10 02:32:00,
2013-04-09 21:42:00,42.0,42.0,-100.00,North,10,16.0,21.0,97,1.01,,,-99.99,,2013-04-10 02:42:00,
2013-04-09 21:52:00,39.0,39.0,-100.00,North,350,21.0,26.0,98,0.86,,,-99.99,,2013-04-10 02:52:00,
2013-04-09 22:02:00,39.0,39.0,-100.00,North,350,21.0,26.0,98,0.86,,,-99.99,,2013-04-10 03:02:00,
2013-04-09 22:12:00,39.0,39.0,-100.00,North,0,19.0,24.0,98,0.58,,,-99.99,,2013-04-10 03:12:00,
2013-04-09 22:22:00,38.0,38.0,-100.00,North,0,20.0,24.0,98,0.37,,,-99.99,,2013-04-10 03:22:00,
2013-04-09 22:33:00,37.0,37.0,-100.00,North,10,22.0,26.0,98,2.98,,,-99.99,,2013-04-10 03:33:00,
2013-04-09 22:43:00,37.0,37.0,-100.00,North,10,22.0,26.0,98,2.98,,,-99.99,,2013-04-10 03:43:00,
2013-04-09 22:52:00,37.0,37.0,-100.00,NNE,25,22.0,29.0,98,0.00,,,-99.99,,2013-04-10 03:52:00,
2013-04-09 23:03:00,37.0,37.0,-100.00,NNE,25,22.0,29.0,98,0.00,,,-99.99,,2013-04-10 04:03:00,
2013-04-09 23:13:00,37.0,37.0,-100.00,NNE,25,24.0,32.0,98,0.00,,,-99.99,,2013-04-10 04:13:00,
2013-04-09 23:23:00,38.0,37.0,-100.00,NNE,25,19.0,27.0,98,0.37,,,-99.99,,2013-04-10 04:23:00,
2013-04-09 23:33:00,39.0,38.0,-100.00,NE,35,19.0,23.0,98,0.50,,,-99.99,,2013-04-10 04:33:00,
2013-04-09 23:42:00,39.0,38.0,-100.00,NE,35,19.0,23.0,98,0.50,,,-99.99,,2013-04-10 04:42:00,
2013-04-09 23:52:00,39.0,38.0,-100.00,NNE,15,17.0,22.0,96,0.45,,,-99.99,,2013-04-10 04:52:00,